Time;durP1;ratioP1;P1;durP2;ratioP2;P2;SDS_P1;SDS_P2;PMS_P1;PMS_P2;Temp;Humidity;BMP_temperature;BMP_pressure;BME280_temperature;BME280_humidity;BME280_pressure;Samples;Min_cycle;Max_cycle;Signal;HPM_P1;HPM_P2
2022/04/18 00:01:29;;;;;;;55.50;25.10;;;;;;;4.30;60.41;100840.34;105627;1274;23004;-62
2022/04/18 00:04:00;;;;;;;59.40;26.60;;;;;;;4.27;60.40;100833.13;105721;1274;22534;-63
2022/04/18 00:06:35;;;;;;;63.80;28.20;;;;;;;4.26;60.61;100828.48;105771;1272;24242;-63
2022/04/18 00:09:07;;;;;;;60.70;26.70;;;;;;;4.23;60.88;100822.06;105610;1274;22542;-63
2022/04/18 00:11:38;;;;;;;63.40;27.00;;;;;;;4.22;60.79;100821.76;105736;1274;22575;-63
2022/04/18 00:14:10;;;;;;;55.50;26.60;;;;;;;4.22;60.97;100816.09;105793;1272;22562;-63
2022/04/18 00:16:42;;;;;;;61.80;26.90;;;;;;;4.18;60.95;100816.15;105778;1272;22531;-63
2022/04/18 00:19:14;;;;;;;56.10;25.00;;;;;;;4.16;60.89;100814.29;105720;1272;22636;-64
2022/04/18 00:21:45;;;;;;;58.20;25.50;;;;;;;4.15;60.57;100813.13;105571;1272;22550;-64
2022/04/18 00:24:19;;;;;;;56.50;23.20;;;;;;;4.13;60.79;100809.52;105654;1272;24282;-63
2022/04/18 00:26:51;;;;;;;46.00;21.40;;;;;;;4.11;60.51;100806.34;105546;1272;22558;-63
2022/04/18 00:29:22;;;;;;;45.10;20.30;;;;;;;4.10;60.35;100807.67;105563;1272;22607;-63
2022/04/18 00:31:54;;;;;;;45.40;20.50;;;;;;;4.10;60.30;100807.52;105910;1272;22556;-62
2022/04/18 00:34:26;;;;;;;52.60;21.20;;;;;;;4.09;60.37;100807.62;105589;1272;22632;-63
2022/04/18 00:36:58;;;;;;;49.00;21.60;;;;;;;4.08;60.28;100805.91;105537;1272;22535;-63
2022/04/18 00:39:30;;;;;;;48.10;21.50;;;;;;;4.06;60.30;100799.45;105789;1272;22538;-63
2022/04/18 00:42:02;;;;;;;53.70;23.80;;;;;;;4.05;60.39;100800.27;105745;1272;23279;-63
2022/04/18 00:44:33;;;;;;;49.60;22.30;;;;;;;4.04;60.45;100792.23;105532;1272;25041;-63
2022/04/18 00:47:06;;;;;;;48.20;21.40;;;;;;;4.03;60.52;100794.07;105598;1272;25359;-63
2022/04/18 00:49:38;;;;;;;52.90;22.20;;;;;;;4.02;60.67;100791.01;105575;1272;25368;-62
2022/04/18 00:52:13;;;;;;;53.50;22.80;;;;;;;4.01;60.96;100784.09;105567;1272;24266;-62
2022/04/18 00:54:46;;;;;;;53.90;23.20;;;;;;;4.00;61.23;100783.54;105794;1272;22534;-62
2022/04/18 00:57:17;;;;;;;53.20;22.60;;;;;;;3.98;60.96;100780.83;105453;1272;25376;-62
2022/04/18 00:59:49;;;;;;;56.00;23.60;;;;;;;3.97;61.42;100773.96;105651;1272;24408;-63
2022/04/18 01:02:20;;;;;;;55.00;24.60;;;;;;;3.95;61.58;100769.91;105623;1272;25338;-62
2022/04/18 01:04:51;;;;;;;49.80;21.90;;;;;;;3.92;61.56;100764.74;105877;1273;22573;-62
2022/04/18 01:07:24;;;;;;;51.40;22.90;;;;;;;3.93;61.70;100766.06;105662;1272;22538;-62
2022/04/18 01:09:56;;;;;;;56.90;22.70;;;;;;;3.93;61.91;100757.77;105717;1272;22662;-62
2022/04/18 01:12:27;;;;;;;54.30;21.80;;;;;;;3.93;61.92;100758.64;105571;1272;25334;-63
2022/04/18 01:14:58;;;;;;;51.20;22.70;;;;;;;3.94;61.83;100754.92;105615;1271;22540;-62
2022/04/18 01:17:30;;;;;;;47.50;22.50;;;;;;;3.94;61.96;100753.19;105556;1271;22531;-62
2022/04/18 01:20:02;;;;;;;54.60;22.60;;;;;;;3.94;61.93;100753.98;105691;1271;25441;-62
2022/04/18 01:22:34;;;;;;;55.80;25.10;;;;;;;3.95;61.92;100752.05;105719;1271;25415;-62
2022/04/18 01:30:56;;;;;;;55.50;22.00;;;;;;;3.92;62.84;100748.02;105245;1278;22813;-62
2022/04/18 01:33:27;;;;;;;51.40;21.50;;;;;;;3.88;63.27;100749.04;105442;1277;22909;-62
2022/04/18 01:35:59;;;;;;;49.20;21.00;;;;;;;3.82;63.37;100751.02;105399;1278;22557;-61
2022/04/18 01:38:30;;;;;;;49.70;20.80;;;;;;;3.76;63.82;100746.88;105181;1278;25353;-63
2022/04/18 01:41:02;;;;;;;52.60;22.90;;;;;;;3.71;63.96;100746.64;105358;1278;24265;-62
2022/04/18 01:43:34;;;;;;;48.60;22.30;;;;;;;3.68;64.11;100743.77;105257;1278;22537;-62
2022/04/18 01:46:08;;;;;;;53.90;21.60;;;;;;;3.66;63.94;100743.08;105274;1278;27514;-62
2022/04/18 01:48:40;;;;;;;47.00;20.70;;;;;;;3.69;63.87;100741.02;105329;1278;22694;-63
2022/04/18 01:51:11;;;;;;;51.90;21.20;;;;;;;3.69;63.99;100736.36;105202;1281;24258;-63
2022/04/18 01:53:43;;;;;;;48.60;20.60;;;;;;;3.67;64.30;100729.20;105247;1278;24413;-61
2022/04/18 01:56:15;;;;;;;50.70;21.30;;;;;;;3.64;64.33;100723.64;105212;1278;23835;-62
2022/04/18 01:58:48;;;;;;;48.80;21.50;;;;;;;3.64;64.29;100721.98;105304;1278;23228;-62
2022/04/18 02:01:22;;;;;;;50.80;21.90;;;;;;;3.64;64.57;100719.63;105224;1278;24998;-61
2022/04/18 02:03:53;;;;;;;43.50;19.20;;;;;;;3.62;64.66;100719.27;105521;1272;22603;-60
2022/04/18 02:06:24;;;;;;;44.30;18.30;;;;;;;3.57;65.23;100715.65;105523;1272;22570;-62
2022/04/18 02:08:56;;;;;;;42.50;16.20;;;;;;;3.50;65.37;100716.95;105661;1272;22587;-63
2022/04/18 02:11:27;;;;;;;39.00;16.60;;;;;;;3.44;65.84;100721.93;105576;1272;25360;-61
2022/04/18 02:13:59;;;;;;;39.50;15.80;;;;;;;3.40;65.78;100715.21;105586;1272;22675;-63
2022/04/18 02:16:30;;;;;;;39.40;16.70;;;;;;;3.41;65.94;100714.34;105500;1272;24391;-63
2022/04/18 02:19:02;;;;;;;38.60;15.40;;;;;;;3.41;66.31;100712.36;105674;1271;22635;-61
2022/04/18 02:21:33;;;;;;;39.00;16.20;;;;;;;3.40;66.16;100709.77;105684;1271;25331;-62
2022/04/18 02:24:05;;;;;;;44.00;16.70;;;;;;;3.39;66.17;100708.61;105650;1272;23095;-62
2022/04/18 02:26:36;;;;;;;41.90;16.40;;;;;;;3.39;66.54;100704.75;105503;1272;22521;-62
2022/04/18 02:29:09;;;;;;;45.20;16.90;;;;;;;3.37;66.74;100700.91;105635;1272;22561;-61
2022/04/18 02:34:25;;;;;;;38.40;15.90;;;;;;;3.31;66.60;100686.45;105555;1272;22561;-60
2022/04/18 02:36:57;;;;;;;45.10;18.10;;;;;;;3.30;66.72;100686.42;105720;1272;22561;-60
2022/04/18 02:39:30;;;;;;;43.10;18.10;;;;;;;3.31;66.96;100679.56;105955;1272;22617;-62
2022/04/18 02:42:01;;;;;;;42.90;17.70;;;;;;;3.31;66.83;100679.72;105705;1272;25371;-62
2022/04/18 02:44:33;;;;;;;44.70;16.90;;;;;;;3.30;66.83;100675.95;105623;1271;24451;-62
2022/04/18 02:47:05;;;;;;;45.00;17.40;;;;;;;3.29;66.98;100675.02;105643;1272;22537;-61
2022/04/18 02:49:37;;;;;;;45.70;19.00;;;;;;;3.30;66.93;100673.91;105668;1273;22573;-61
2022/04/18 02:52:09;;;;;;;48.60;17.90;;;;;;;3.31;67.01;100670.98;105627;1272;23213;-62
2022/04/18 02:54:44;;;;;;;52.40;20.30;;;;;;;3.28;67.53;100672.03;105760;1272;22540;-61
2022/04/18 02:57:15;;;;;;;54.30;20.30;;;;;;;3.26;68.05;100672.23;105941;1272;22543;-61
2022/04/18 02:59:47;;;;;;;46.00;18.50;;;;;;;3.21;68.21;100664.58;105814;1272;22761;-61
2022/04/18 03:02:18;;;;;;;44.40;18.00;;;;;;;3.18;68.30;100661.26;105599;1272;25253;-61
2022/04/18 03:04:50;;;;;;;45.40;19.40;;;;;;;3.15;68.24;100655.00;105576;1272;22557;-60
2022/04/18 03:07:22;;;;;;;48.70;19.10;;;;;;;3.15;68.29;100648.05;105594;1272;22528;-61
2022/04/18 03:09:55;;;;;;;56.40;21.10;;;;;;;3.16;68.03;100647.58;105677;1272;22577;-60
2022/04/18 03:12:27;;;;;;;54.20;20.30;;;;;;;3.16;67.90;100646.79;105630;1272;24305;-61
2022/04/18 03:14:58;;;;;;;48.40;18.10;;;;;;;3.16;67.99;100649.30;105589;1272;22549;-62
2022/04/18 03:17:30;;;;;;;51.10;19.40;;;;;;;3.13;68.27;100657.09;105729;1272;25937;-61
2022/04/18 03:20:02;;;;;;;46.60;20.20;;;;;;;3.09;68.39;100649.41;105595;1272;25600;-62
2022/04/18 03:22:34;;;;;;;46.00;19.70;;;;;;;3.09;68.41;100651.23;105608;1272;24286;-62
2022/04/18 03:25:07;;;;;;;51.40;22.60;;;;;;;3.10;68.37;100651.14;105651;1272;22986;-62
2022/04/18 03:27:39;;;;;;;47.10;21.70;;;;;;;3.10;68.64;100651.75;105660;1272;22580;-62
2022/04/18 03:30:11;;;;;;;48.50;19.90;;;;;;;3.06;68.76;100649.40;105764;1272;22549;-61
2022/04/18 03:32:44;;;;;;;49.60;21.40;;;;;;;3.02;68.59;100644.33;105748;1272;24309;-60
2022/04/18 03:35:15;;;;;;;54.40;22.40;;;;;;;2.97;68.70;100645.04;105637;1272;24387;-62
2022/04/18 03:40:37;;;;;;;49.80;20.50;;;;;;;2.89;68.68;100638.23;105542;1272;22540;-61
2022/04/18 03:43:09;;;;;;;48.70;20.30;;;;;;;2.88;68.54;100638.48;105633;1272;25363;-61
2022/04/18 03:45:40;;;;;;;51.50;21.70;;;;;;;2.82;68.69;100637.63;105660;1272;22535;-62
2022/04/18 03:48:12;;;;;;;48.80;21.70;;;;;;;2.77;68.42;100638.17;105709;1272;22579;-60
2022/04/18 03:50:44;;;;;;;56.30;24.50;;;;;;;2.76;68.53;100637.09;105641;1272;22535;-61
2022/04/18 03:53:15;;;;;;;48.70;19.30;;;;;;;2.73;68.75;100641.94;105822;1272;22532;-62
2022/04/18 03:55:47;;;;;;;39.40;15.40;;;;;;;2.70;68.53;100642.84;105799;1272;22658;-61
2022/04/18 03:58:20;;;;;;;30.10;11.30;;;;;;;2.69;67.81;100643.19;105706;1272;23261;-62
2022/04/18 04:00:51;;;;;;;26.60;11.10;;;;;;;2.70;67.53;100644.81;105708;1272;25415;-62
2022/04/18 04:03:24;;;;;;;26.90;8.60;;;;;;;2.69;67.15;100646.89;105682;1272;23805;-61
2022/04/18 04:05:56;;;;;;;25.60;9.30;;;;;;;2.69;67.12;100647.10;105601;1272;22560;-60
2022/04/18 04:08:28;;;;;;;25.20;7.90;;;;;;;2.70;66.86;100646.94;105565;1271;22571;-62
2022/04/18 04:11:00;;;;;;;29.60;9.90;;;;;;;2.70;66.78;100650.88;105700;1271;25332;-61
2022/04/18 04:13:31;;;;;;;26.00;8.40;;;;;;;2.70;66.55;100647.58;105596;1271;22613;-61
2022/04/18 04:16:03;;;;;;;25.80;8.20;;;;;;;2.68;66.60;100649.34;105669;1272;22552;-60
2022/04/18 04:18:35;;;;;;;23.90;7.60;;;;;;;2.67;66.54;100654.00;105684;1272;22543;-60
2022/04/18 04:21:07;;;;;;;22.90;7.20;;;;;;;2.68;66.64;100655.17;105708;1272;24370;-61
2022/04/18 04:23:38;;;;;;;24.00;8.30;;;;;;;2.69;66.61;100658.70;105604;1272;25265;-61
2022/04/18 04:26:11;;;;;;;23.70;7.00;;;;;;;2.69;66.49;100654.27;105622;1271;25429;-60
2022/04/18 04:28:42;;;;;;;26.90;8.50;;;;;;;2.68;66.35;100648.08;105580;1272;22561;-60
2022/04/18 04:31:15;;;;;;;22.30;7.30;;;;;;;2.67;66.48;100647.63;105659;1271;26553;-61
2022/04/18 04:33:46;;;;;;;19.90;6.80;;;;;;;2.65;66.42;100646.77;105574;1273;22556;-62
2022/04/18 04:36:18;;;;;;;24.40;8.00;;;;;;;2.67;66.56;100646.35;105835;1272;25352;-62
2022/04/18 04:38:50;;;;;;;21.50;7.00;;;;;;;2.70;66.49;100645.13;105641;1272;22621;-60
2022/04/18 04:41:21;;;;;;;20.20;6.60;;;;;;;2.69;66.44;100645.77;105603;1272;23069;-65
2022/04/18 04:43:53;;;;;;;24.20;7.60;;;;;;;2.71;66.47;100646.70;105794;1272;26497;-59
2022/04/18 04:46:24;;;;;;;23.30;6.50;;;;;;;2.74;66.50;100645.22;105609;1272;22528;-61
2022/04/18 04:48:55;;;;;;;24.00;7.30;;;;;;;2.76;66.36;100642.91;105604;1272;22535;-61
2022/04/18 04:51:27;;;;;;;24.10;7.10;;;;;;;2.78;66.41;100648.09;105560;1272;23104;-61
2022/04/18 04:53:59;;;;;;;24.30;7.00;;;;;;;2.80;66.42;100647.58;105493;1271;22551;-60
2022/04/18 04:56:30;;;;;;;22.80;6.70;;;;;;;2.81;66.52;100651.98;105542;1271;22531;-61
2022/04/18 04:59:04;;;;;;;23.90;6.50;;;;;;;2.86;66.60;100661.52;105687;1272;22617;-61
2022/04/18 05:01:35;;;;;;;22.30;6.80;;;;;;;2.93;66.42;100658.41;105617;1271;25328;-61
2022/04/18 05:04:07;;;;;;;19.60;6.30;;;;;;;2.98;66.38;100657.47;105642;1272;25574;-61
2022/04/18 05:06:40;;;;;;;22.40;6.50;;;;;;;3.05;66.50;100653.55;105452;1272;25420;-61
2022/04/18 05:09:12;;;;;;;20.50;5.90;;;;;;;3.14;66.56;100652.33;105588;1272;22525;-60
2022/04/18 05:11:44;;;;;;;22.10;7.30;;;;;;;3.19;66.31;100656.50;105568;1272;22522;-61
2022/04/18 05:14:16;;;;;;;21.50;6.10;;;;;;;3.21;66.12;100654.50;105458;1272;23020;-61
2022/04/18 05:16:47;;;;;;;20.70;6.50;;;;;;;3.25;66.38;100652.08;105595;1272;22548;-59
2022/04/18 05:19:19;;;;;;;21.90;6.60;;;;;;;3.35;66.41;100652.92;105533;1272;22552;-61
2022/04/18 05:21:50;;;;;;;23.00;7.30;;;;;;;3.41;66.09;100653.84;105942;1272;24388;-62
2022/04/18 05:24:22;;;;;;;24.20;7.50;;;;;;;3.44;66.12;100653.09;105672;1272;22545;-62
2022/04/18 05:26:53;;;;;;;23.50;7.20;;;;;;;3.50;66.23;100655.34;105687;1272;22791;-61
2022/04/18 05:29:26;;;;;;;26.70;7.20;;;;;;;3.58;66.29;100656.39;105587;1272;22600;-61
2022/04/18 05:31:57;;;;;;;21.70;6.10;;;;;;;3.66;65.97;100656.17;105523;1272;24373;-61
2022/04/18 05:34:28;;;;;;;18.60;6.40;;;;;;;3.71;65.85;100650.02;105503;1272;23267;-63
2022/04/18 05:36:59;;;;;;;20.70;5.90;;;;;;;3.76;65.78;100654.56;105731;1272;25654;-63
2022/04/18 05:39:31;;;;;;;22.20;6.40;;;;;;;3.82;65.80;100658.71;105719;1272;24271;-61
2022/04/18 05:42:04;;;;;;;19.70;6.10;;;;;;;3.89;65.59;100657.96;105664;1272;24214;-61
2022/04/18 05:44:35;;;;;;;18.00;5.40;;;;;;;3.96;65.50;100658.05;105560;1272;25266;-59
2022/04/18 05:47:08;;;;;;;17.80;5.50;;;;;;;4.03;65.41;100658.78;105516;1272;23201;-59
2022/04/18 05:49:39;;;;;;;18.60;6.10;;;;;;;4.11;65.35;100659.65;105657;1272;25489;-61
2022/04/18 05:52:11;;;;;;;18.00;5.20;;;;;;;4.18;65.28;100660.78;105635;1273;22550;-61
2022/04/18 05:54:42;;;;;;;20.00;5.70;;;;;;;4.21;64.86;100657.93;105595;1272;22548;-61
2022/04/18 05:57:14;;;;;;;19.20;5.10;;;;;;;4.23;65.07;100659.64;105604;1272;22534;-61
2022/04/18 05:59:46;;;;;;;18.30;5.90;;;;;;;4.25;65.00;100659.77;105411;1272;25439;-59
2022/04/18 06:02:18;;;;;;;21.00;5.80;;;;;;;4.27;65.14;100659.80;105603;1272;25416;-59
2022/04/18 06:04:49;;;;;;;17.40;5.80;;;;;;;4.28;64.58;100659.63;105689;1272;22741;-59
2022/04/18 06:07:21;;;;;;;16.70;5.00;;;;;;;4.24;64.82;100655.60;105548;1272;25386;-58
2022/04/18 06:09:52;;;;;;;18.70;5.80;;;;;;;4.25;65.06;100657.08;105989;1272;24135;-59
2022/04/18 06:12:24;;;;;;;16.70;4.90;;;;;;;4.30;65.01;100658.73;105563;1271;22654;-58
2022/04/18 06:14:56;;;;;;;18.80;6.70;;;;;;;4.34;64.66;100660.52;105512;1272;24280;-58
2022/04/18 06:17:28;;;;;;;17.50;5.20;;;;;;;4.39;64.73;100669.90;105711;1272;22656;-59
2022/04/18 06:20:01;;;;;;;20.90;6.40;;;;;;;4.44;64.47;100667.33;105543;1272;22544;-59
2022/04/18 06:22:34;;;;;;;19.00;6.20;;;;;;;4.50;64.52;100664.22;105557;1272;23095;-60
2022/04/18 06:25:07;;;;;;;21.00;6.50;;;;;;;4.55;64.39;100663.14;105622;1272;25357;-61
2022/04/18 06:27:39;;;;;;;25.40;8.10;;;;;;;4.58;63.66;100665.87;105549;1272;24317;-58
2022/04/18 06:30:12;;;;;;;21.40;7.00;;;;;;;4.58;63.95;100664.27;105420;1272;24264;-58
2022/04/18 06:32:43;;;;;;;22.70;7.60;;;;;;;4.62;63.74;100665.61;105565;1272;23961;-60
2022/04/18 06:35:15;;;;;;;19.10;8.20;;;;;;;4.67;63.75;100664.80;105606;1272;22612;-59
2022/04/18 06:37:47;;;;;;;22.20;8.10;;;;;;;4.70;64.01;100665.34;105399;1271;22541;-58
2022/04/18 06:40:19;;;;;;;20.90;8.10;;;;;;;4.78;63.86;100669.77;105329;1272;22539;-60
2022/04/18 06:42:51;;;;;;;24.00;9.60;;;;;;;4.85;63.62;100664.39;105716;1271;24240;-59
2022/04/18 06:45:24;;;;;;;23.80;9.20;;;;;;;4.90;63.29;100666.33;105736;1272;25286;-59
2022/04/18 06:47:55;;;;;;;24.10;8.30;;;;;;;4.95;62.96;100665.41;105726;1272;22583;-62
2022/04/18 06:50:26;;;;;;;26.40;9.00;;;;;;;4.98;62.51;100662.50;105725;1271;22570;-62
2022/04/18 06:52:58;;;;;;;26.60;9.40;;;;;;;5.01;62.54;100662.52;105754;1271;22626;-60
2022/04/18 06:56:58;;;;;;;26.30;9.00;;;;;;;5.05;62.61;100662.66;105720;1272;24092;-61
2022/04/18 06:58:23;;;;;;;27.20;9.90;;;;;;;5.10;62.68;100661.10;105640;1272;22531;-60
2022/04/18 07:00:54;;;;;;;24.10;9.50;;;;;;;5.15;62.34;100658.61;105596;1272;24595;-61
2022/04/18 07:03:27;;;;;;;24.90;9.10;;;;;;;5.20;62.28;100656.36;105715;1273;24309;-61
2022/04/18 07:05:59;;;;;;;27.00;10.10;;;;;;;5.25;62.06;100653.55;105668;1272;24354;-61
2022/04/18 07:08:31;;;;;;;25.10;9.50;;;;;;;5.31;62.15;100655.92;105626;1272;22549;-61
2022/04/18 07:11:02;;;;;;;26.00;9.50;;;;;;;5.39;61.92;100652.80;105879;1272;24324;-62
2022/04/18 07:13:34;;;;;;;26.30;9.90;;;;;;;5.49;62.08;100652.71;105705;1272;25324;-62
2022/04/18 07:16:09;;;;;;;23.90;9.50;;;;;;;5.56;61.58;100655.70;105582;1272;22652;-59
2022/04/18 07:18:40;;;;;;;24.80;8.80;;;;;;;5.64;61.69;100654.84;105605;1272;22550;-62
2022/04/18 07:21:11;;;;;;;24.10;9.00;;;;;;;5.75;61.55;100660.27;105471;1274;24449;-59
2022/04/18 07:23:43;;;;;;;25.00;10.40;;;;;;;5.84;61.11;100655.45;105778;1272;22624;-61
2022/04/18 07:26:14;;;;;;;26.30;8.90;;;;;;;5.89;60.99;100658.11;105911;1272;22687;-62
2022/04/18 07:28:46;;;;;;;24.40;9.10;;;;;;;5.93;61.00;100657.83;105769;1272;24338;-62
2022/04/18 07:31:17;;;;;;;23.80;9.10;;;;;;;5.99;60.95;100659.16;105751;1272;22556;-61
2022/04/18 07:33:49;;;;;;;26.50;10.70;;;;;;;6.05;61.10;100653.85;105885;1272;23020;-61
2022/04/18 07:36:20;;;;;;;26.80;9.40;;;;;;;6.10;61.07;100653.92;105941;1272;23622;-61
2022/04/18 07:38:52;;;;;;;21.60;7.20;;;;;;;6.17;61.04;100651.45;105788;1272;23961;-61
2022/04/18 07:41:25;;;;;;;25.20;8.90;;;;;;;6.24;60.17;100650.14;105655;1272;24254;-61
2022/04/18 07:43:57;;;;;;;22.80;8.80;;;;;;;6.30;60.13;100650.04;105312;1272;25306;-62
2022/04/18 07:46:29;;;;;;;22.00;7.90;;;;;;;6.38;59.81;100651.08;105547;1272;24265;-59
2022/04/18 07:49:00;;;;;;;23.10;9.00;;;;;;;6.43;59.21;100649.98;105633;1272;22530;-60
2022/04/18 07:51:39;;;;;;;26.60;9.60;;;;;;;6.49;59.41;100647.88;105697;1272;22557;-59
2022/04/18 07:54:12;;;;;;;24.40;7.50;;;;;;;6.57;59.40;100647.64;105565;1272;24455;-58
2022/04/18 07:56:44;;;;;;;25.30;8.20;;;;;;;6.66;59.33;100645.55;105585;1272;24284;-61
2022/04/18 07:59:16;;;;;;;22.80;8.50;;;;;;;6.74;58.98;100648.42;105624;1271;25366;-62
2022/04/18 08:01:47;;;;;;;23.10;7.70;;;;;;;6.83;58.47;100646.15;105667;1272;24242;-61
2022/04/18 08:04:19;;;;;;;22.30;6.50;;;;;;;6.90;58.28;100642.59;105739;1272;24066;-60
2022/04/18 08:06:50;;;;;;;24.30;7.90;;;;;;;7.00;57.48;100639.65;105693;1272;22554;-60
2022/04/18 08:09:22;;;;;;;21.00;7.20;;;;;;;7.13;58.48;100635.52;105703;1273;23016;-61
2022/04/18 08:11:53;;;;;;;17.20;6.60;;;;;;;7.28;58.40;100636.38;105722;1272;22553;-61
2022/04/18 08:14:24;;;;;;;19.60;6.90;;;;;;;7.39;58.02;100633.13;105759;1272;22583;-61
2022/04/18 08:16:56;;;;;;;17.80;5.50;;;;;;;7.49;57.19;100635.91;105818;1272;25500;-60
2022/04/18 08:19:28;;;;;;;20.10;6.30;;;;;;;7.58;56.62;100637.90;105846;1273;25302;-61
2022/04/18 08:21:59;;;;;;;20.00;5.90;;;;;;;7.66;56.09;100634.67;105865;1272;24306;-60
2022/04/18 08:24:31;;;;;;;18.00;5.00;;;;;;;7.72;55.61;100637.64;107740;1272;22532;-62
2022/04/18 08:27:03;;;;;;;20.40;5.50;;;;;;;7.82;55.72;100635.41;106005;1272;22555;-61
2022/04/18 08:29:34;;;;;;;17.20;4.80;;;;;;;7.88;55.75;100630.55;105802;1272;25258;-60
2022/04/18 08:32:08;;;;;;;19.10;5.40;;;;;;;7.94;55.37;100630.59;105675;1272;24240;-61
2022/04/18 08:34:39;;;;;;;18.90;5.30;;;;;;;8.00;55.46;100627.18;105722;1272;22528;-61
2022/04/18 08:37:11;;;;;;;14.80;4.40;;;;;;;8.10;55.49;100631.67;105785;1272;25286;-61
2022/04/18 08:39:43;;;;;;;17.00;4.90;;;;;;;8.20;55.06;100633.29;105745;1272;26521;-61
2022/04/18 08:42:15;;;;;;;19.10;5.50;;;;;;;8.28;54.88;100628.27;105894;1272;22602;-62
2022/04/18 08:44:47;;;;;;;16.70;4.90;;;;;;;8.38;55.08;100624.80;105833;1272;25319;-61
2022/04/18 08:52:54;;;;;;;13.90;3.50;;;;;;;8.73;53.40;100628.61;105862;1272;24313;-62
2022/04/18 08:55:27;;;;;;;11.80;2.90;;;;;;;8.79;52.70;100622.69;105785;1273;24306;-61
2022/04/18 08:57:58;;;;;;;12.90;3.50;;;;;;;8.85;52.70;100619.76;105800;1273;22566;-62
2022/04/18 09:00:30;;;;;;;13.50;3.30;;;;;;;8.93;52.52;100617.30;105964;1272;23409;-61
2022/04/18 09:03:01;;;;;;;12.70;3.70;;;;;;;9.02;52.79;100612.00;105757;1272;22573;-61
2022/04/18 09:05:37;;;;;;;14.60;4.20;;;;;;;9.10;52.79;100608.32;105727;1272;25884;-61
2022/04/18 09:08:11;;;;;;;18.40;4.70;;;;;;;9.20;52.69;100606.96;105758;1273;22541;-61
2022/04/18 09:10:43;;;;;;;9.50;2.50;;;;;;;9.30;51.30;100603.45;105788;1272;22540;-62
2022/04/18 09:13:16;;;;;;;13.00;3.10;;;;;;;9.39;50.09;100603.61;105741;1272;24254;-61
2022/04/18 09:15:49;;;;;;;11.80;3.50;;;;;;;9.48;50.57;100604.19;105708;1272;26397;-60
2022/04/18 09:18:21;;;;;;;10.10;2.80;;;;;;;9.52;50.59;100598.21;105844;1272;24240;-62
2022/04/18 09:20:55;;;;;;;10.30;2.20;;;;;;;9.52;49.98;100591.83;105725;1272;22556;-62
2022/04/18 09:23:29;;;;;;;8.90;2.00;;;;;;;9.55;49.20;100592.34;105704;1272;22632;-62
2022/04/18 09:26:04;;;;;;;5.60;1.30;;;;;;;9.63;48.77;100591.69;106520;1265;24420;-55
2022/04/18 09:28:37;;;;;;;4.50;1.10;;;;;;;9.67;47.24;100588.38;106026;1271;22561;-54
2022/04/18 09:31:09;;;;;;;5.60;1.10;;;;;;;9.75;46.57;100590.56;105914;1273;23043;-55
2022/04/18 09:33:46;;;;;;;4.80;0.90;;;;;;;9.82;45.74;100588.13;105944;1271;22531;-52
2022/04/18 09:36:20;;;;;;;5.80;1.10;;;;;;;9.84;45.33;100581.58;106091;1270;25247;-54
2022/04/18 09:38:53;;;;;;;5.20;1.10;;;;;;;9.89;45.59;100570.85;106056;1272;24277;-54
2022/04/18 09:41:27;;;;;;;5.80;1.20;;;;;;;9.97;45.86;100569.02;105876;1271;25375;-56
2022/04/18 09:43:59;;;;;;;4.60;1.20;;;;;;;10.11;45.55;100567.92;105904;1270;24654;-55
2022/04/18 09:46:31;;;;;;;5.20;1.30;;;;;;;10.25;45.66;100565.77;105917;1271;24283;-56
2022/04/18 09:49:06;;;;;;;5.30;1.30;;;;;;;10.38;45.02;100567.91;106148;1271;25702;-54
2022/04/18 09:51:42;;;;;;;6.60;1.20;;;;;;;10.41;43.84;100571.48;106113;1272;22530;-54
2022/04/18 09:54:14;;;;;;;6.50;1.40;;;;;;;10.41;44.17;100570.13;105804;1271;22580;-55
2022/04/18 09:56:53;;;;;;;7.60;1.10;;;;;;;10.44;43.70;100566.74;105919;1271;24256;-53
2022/04/18 09:59:24;;;;;;;4.80;1.10;;;;;;;10.48;43.57;100562.88;105791;1272;22656;-53
2022/04/18 10:01:56;;;;;;;7.50;1.30;;;;;;;10.52;43.14;100553.98;106130;1271;22813;-52
2022/04/18 10:04:28;;;;;;;6.50;1.50;;;;;;;10.56;43.00;100549.67;106180;1271;22578;-55
2022/04/18 10:07:00;;;;;;;4.50;1.10;;;;;;;10.61;43.30;100548.16;105967;1271;22578;-54
2022/04/18 10:09:31;;;;;;;9.50;1.60;;;;;;;10.64;42.15;100546.51;106005;1271;22539;-54
2022/04/18 10:12:04;;;;;;;5.10;1.10;;;;;;;10.63;42.28;100547.75;106043;1271;25244;-55
2022/04/18 10:14:35;;;;;;;5.50;1.20;;;;;;;10.58;41.66;100540.35;106068;1271;25237;-53
2022/04/18 10:17:09;;;;;;;6.50;1.20;;;;;;;10.54;41.87;100549.48;106049;1272;22582;-56
2022/04/18 10:19:58;;;;;;;7.30;1.30;;;;;;;10.52;41.69;100544.63;106035;1271;22531;-54
2022/04/18 10:22:53;;;;;;;5.30;1.20;;;;;;;10.55;41.13;100535.50;105994;1271;25444;-56
2022/04/18 10:25:39;;;;;;;5.80;1.30;;;;;;;10.63;40.96;100537.04;105978;1272;23035;-54
2022/04/18 10:28:16;;;;;;;7.40;1.50;;;;;;;10.73;40.95;100534.65;106005;1271;22723;-56
2022/04/18 10:30:53;;;;;;;30.10;12.00;;;;;;;10.86;41.07;100531.13;106051;1272;22559;-56
2022/04/18 10:33:25;;;;;;;41.70;19.90;;;;;;;10.97;40.69;100533.27;105635;1271;22537;-52
2022/04/18 10:36:01;;;;;;;10.10;2.20;;;;;;;11.05;39.77;100536.73;105740;1271;22623;-53
2022/04/18 10:38:37;;;;;;;6.50;1.60;;;;;;;11.08;40.16;100530.75;106022;1271;22695;-55
2022/04/18 10:41:35;;;;;;;6.90;1.50;;;;;;;11.12;40.63;100531.16;106190;1272;25228;-51
2022/04/18 10:44:09;;;;;;;5.50;1.10;;;;;;;11.14;39.93;100525.15;105665;1271;492597;-52
2022/04/18 10:46:42;;;;;;;5.40;1.20;;;;;;;11.08;39.69;100524.40;105718;1271;24372;-54
2022/04/18 10:49:19;;;;;;;6.40;1.20;;;;;;;11.04;39.62;100519.45;105713;1271;22538;-55
2022/04/18 10:51:52;;;;;;;5.40;1.30;;;;;;;11.03;39.50;100516.67;105893;1272;23076;-54
2022/04/18 10:54:26;;;;;;;4.20;0.90;;;;;;;11.04;39.55;100519.69;106000;1271;24106;-55
2022/04/18 10:57:01;;;;;;;5.40;1.00;;;;;;;11.05;39.39;100517.94;105948;1272;22532;-52
2022/04/18 10:59:35;;;;;;;8.00;1.70;;;;;;;11.02;38.77;100517.06;106043;1271;23706;-56
2022/04/18 11:02:08;;;;;;;5.40;1.20;;;;;;;10.99;39.04;100514.40;105989;1272;22728;-54
2022/04/18 11:04:48;;;;;;;6.90;1.40;;;;;;;10.98;38.90;100512.40;105771;1271;25294;-52
2022/04/18 11:07:19;;;;;;;5.60;1.20;;;;;;;10.96;38.54;100510.36;105695;1271;22534;-55
2022/04/18 11:09:51;;;;;;;5.80;1.30;;;;;;;10.94;38.41;100512.27;105859;1272;22661;-54
2022/04/18 11:12:23;;;;;;;7.00;1.50;;;;;;;10.91;38.47;100510.13;105758;1272;25338;-54
2022/04/18 11:15:02;;;;;;;6.50;1.40;;;;;;;10.93;38.72;100509.51;105973;1271;25249;-55
2022/04/18 11:17:38;;;;;;;5.20;1.20;;;;;;;11.00;38.52;100502.14;105862;1271;22734;-55
2022/04/18 11:20:27;;;;;;;6.70;1.60;;;;;;;11.08;38.94;100501.52;105622;1271;26090;-55
2022/04/18 11:23:26;;;;;;;8.10;1.30;;;;;;;11.18;38.86;100501.33;106030;1272;25295;-54
2022/04/18 11:26:02;;;;;;;7.50;1.40;;;;;;;11.27;38.59;100496.52;106000;1271;24226;-52
2022/04/18 11:28:39;;;;;;;4.90;1.30;;;;;;;11.29;38.85;100499.29;106145;1271;22615;-52
2022/04/18 11:31:21;;;;;;;5.00;1.30;;;;;;;11.25;38.63;100497.59;105808;1271;22554;-55
2022/04/18 11:33:52;;;;;;;5.10;1.30;;;;;;;11.20;38.59;100492.96;105701;1271;22616;-55
2022/04/18 11:36:27;;;;;;;5.70;1.50;;;;;;;11.16;38.46;100482.87;105732;1271;25556;-54
2022/04/18 11:39:10;;;;;;;5.50;1.50;;;;;;;11.19;38.73;100485.00;105991;1271;22557;-51
2022/04/18 11:41:43;;;;;;;6.50;1.40;;;;;;;11.24;38.58;100479.38;105780;1271;22590;-55
2022/04/18 11:44:20;;;;;;;7.70;1.30;;;;;;;11.25;38.73;100475.39;105911;1271;22546;-54
2022/04/18 11:46:53;;;;;;;6.40;1.50;;;;;;;11.29;38.78;100476.64;105796;1272;27516;-52
2022/04/18 11:49:29;;;;;;;6.00;1.50;;;;;;;11.36;38.39;100474.73;105799;1271;25402;-54
2022/04/18 11:52:01;;;;;;;5.80;1.50;;;;;;;11.40;37.67;100473.08;106136;1271;24562;-53
2022/04/18 11:54:32;;;;;;;8.00;1.40;;;;;;;11.44;37.63;100470.20;106075;1271;22836;-54
2022/04/18 11:57:04;;;;;;;6.60;1.50;;;;;;;11.44;37.54;100467.36;106194;1271;22532;-55